Terminal Aerodrome Forecast
Issued by NWS

Home | Current Version | Previous Version | Text Only | Print | Product List | Glossary Off
Versions: 1 2 3 4 5 6 7 8 9 10 11 12 13 14 15 16 17 18 19 20 21

312
FTUS43 KIWX 192015 AAA
TAFSBN
TAF AMD
KSBN 192015Z 1920/2018 07012KT P6SM SCT015 OVC045
      TEMPO 1920/1924 3SM -SHRA BR BKN015
     FM200000 06011KT P6SM OVC015
     FM201500 12013KT 5SM SHRA OVC020=

USA.gov is the U.S. government's official web portal to all federal, state and local government web resources and services.